Time;durP1;ratioP1;P1;durP2;ratioP2;P2;SDS_P1;SDS_P2;PMS_P1;PMS_P2;Temp;Humidity;BMP_temperature;BMP_pressure;BME280_temperature;BME280_humidity;BME280_pressure;Samples;Min_cycle;Max_cycle;Signal;HPM_P1;HPM_P2
2022/01/13 00:01:31;;;;;;;32.55;13.73;;;;;;;3.82;100.00;102951.69;5214023;28;20040;-78
2022/01/13 00:04:02;;;;;;;30.52;13.98;;;;;;;3.85;100.00;102948.31;5208394;28;20084;-78
2022/01/13 00:06:32;;;;;;;31.70;13.93;;;;;;;3.79;100.00;102943.84;5203766;28;20097;-77
2022/01/13 00:09:04;;;;;;;32.05;14.18;;;;;;;3.85;100.00;102951.78;5204320;28;20075;-77
2022/01/13 00:11:35;;;;;;;34.03;14.63;;;;;;;3.84;100.00;102931.03;5211179;28;20036;-77
2022/01/13 00:16:41;;;;;;;34.47;14.20;;;;;;;3.76;100.00;102933.41;5213804;28;20040;-77
2022/01/13 00:24:46;;;;;;;30.05;13.40;;;;;;;3.80;100.00;102944.72;5227194;28;20037;-77
2022/01/13 00:27:16;;;;;;;31.73;13.60;;;;;;;3.88;100.00;102945.81;5214299;28;20049;-78
2022/01/13 00:29:46;;;;;;;29.20;12.90;;;;;;;3.72;100.00;102948.78;5213705;28;20084;-78
2022/01/13 00:32:19;;;;;;;34.28;13.13;;;;;;;3.73;100.00;102953.13;5214602;28;20029;-77
2022/01/13 00:34:49;;;;;;;31.50;13.18;;;;;;;3.60;100.00;102949.28;5204130;28;20029;-77
2022/01/13 00:37:20;;;;;;;33.05;14.15;;;;;;;3.66;100.00;102940.84;5203831;28;20032;-77
2022/01/13 00:39:50;;;;;;;30.17;13.88;;;;;;;3.75;100.00;102944.59;5208309;28;20029;-78
2022/01/13 00:42:22;;;;;;;31.10;13.50;;;;;;;3.81;100.00;102944.75;5213091;28;20088;-77
2022/01/13 00:44:52;;;;;;;28.38;12.48;;;;;;;3.64;100.00;102948.53;5207993;28;20511;-77
2022/01/13 00:47:23;;;;;;;33.13;13.18;;;;;;;3.72;100.00;102941.91;5206253;28;20055;-77
2022/01/13 00:49:53;;;;;;;27.38;12.70;;;;;;;3.73;100.00;102950.53;5214938;28;20025;-78
2022/01/13 00:52:25;;;;;;;34.53;14.18;;;;;;;3.65;100.00;102954.59;5218046;28;20107;-78
2022/01/13 00:54:56;;;;;;;32.83;12.88;;;;;;;3.75;100.00;102951.47;5217967;28;20048;-78
2022/01/13 00:57:28;;;;;;;32.70;13.40;;;;;;;3.86;100.00;102950.06;5217138;28;20024;-77
2022/01/13 00:59:59;;;;;;;28.85;13.32;;;;;;;3.66;100.00;102946.91;5219926;28;20049;-77
2022/01/13 01:02:29;;;;;;;30.67;12.93;;;;;;;3.64;100.00;102951.13;5213688;28;20087;-77
2022/01/13 01:04:59;;;;;;;29.08;13.43;;;;;;;3.64;100.00;102942.50;5211775;28;20025;-77
2022/01/13 01:07:30;;;;;;;33.70;14.10;;;;;;;3.62;100.00;102945.03;5209779;28;20681;-78
2022/01/13 01:10:02;;;;;;;36.58;14.20;;;;;;;3.67;100.00;102938.31;5208528;28;20017;-78
2022/01/13 01:12:37;;;;;;;36.63;14.48;;;;;;;3.71;100.00;102945.34;5218403;28;20024;-78
2022/01/13 01:15:08;;;;;;;32.25;13.80;;;;;;;3.46;100.00;102946.22;5216367;28;20116;-77
2022/01/13 01:17:45;;;;;;;28.15;13.57;;;;;;;3.50;100.00;102935.19;5204926;28;20100;-77
2022/01/13 01:20:15;;;;;;;34.83;13.77;;;;;;;3.62;100.00;102947.63;5213663;28;20037;-78
2022/01/13 01:28:00;;;;;;;31.73;14.50;;;;;;;3.44;100.00;102945.31;5217676;28;20034;-77
2022/01/13 01:30:38;;;;;;;34.03;13.90;;;;;;;3.29;100.00;102939.66;5215317;28;20021;-78
2022/01/13 01:33:14;;;;;;;30.42;13.70;;;;;;;3.30;100.00;102944.88;5213880;28;20094;-77
2022/01/13 01:35:44;;;;;;;33.92;14.90;;;;;;;3.46;100.00;102948.81;5212767;28;20032;-77
2022/01/13 01:38:14;;;;;;;34.58;13.90;;;;;;;3.40;100.00;102946.91;5213312;28;20025;-77
2022/01/13 01:40:45;;;;;;;32.85;14.05;;;;;;;3.47;100.00;102947.97;5217919;28;20063;-77
2022/01/13 01:43:15;;;;;;;32.17;14.90;;;;;;;3.31;100.00;102948.34;5216387;28;20045;-78
2022/01/13 01:45:49;;;;;;;29.27;13.85;;;;;;;3.26;100.00;102957.66;5217827;28;20024;-78
2022/01/13 01:48:20;;;;;;;29.08;13.75;;;;;;;3.25;100.00;102955.91;5215776;28;20035;-77
2022/01/13 01:50:58;;;;;;;30.75;13.65;;;;;;;3.21;100.00;102943.72;5216215;28;20057;-78
2022/01/13 01:53:28;;;;;;;28.83;13.75;;;;;;;3.38;100.00;102952.88;5215897;28;20060;-77
2022/01/13 01:55:59;;;;;;;30.35;13.35;;;;;;;3.43;100.00;102956.47;5216615;28;20029;-77
2022/01/13 01:58:29;;;;;;;30.77;13.57;;;;;;;3.40;100.00;102953.81;5216032;28;20030;-77
2022/01/13 02:01:00;;;;;;;33.53;13.70;;;;;;;3.36;100.00;102957.13;5220648;28;20079;-77
2022/01/13 02:03:30;;;;;;;31.17;13.32;;;;;;;3.33;100.00;102946.69;5211720;28;20028;-77
2022/01/13 02:06:00;;;;;;;29.42;12.98;;;;;;;3.24;100.00;102941.22;5211111;28;20124;-77
2022/01/13 02:08:31;;;;;;;31.50;13.20;;;;;;;3.28;100.00;102937.91;5214809;28;20048;-78
2022/01/13 02:11:01;;;;;;;32.42;14.30;;;;;;;3.19;100.00;102942.78;5218867;28;20040;-78
2022/01/13 02:13:34;;;;;;;26.55;12.90;;;;;;;3.32;100.00;102942.34;5213936;28;20387;-77
2022/01/13 02:16:16;;;;;;;28.90;13.18;;;;;;;3.18;100.00;102941.03;5220004;28;20033;-77
2022/01/13 02:18:48;;;;;;;31.15;14.75;;;;;;;3.38;100.00;102943.41;5214619;28;20075;-77
2022/01/13 02:21:19;;;;;;;38.25;14.13;;;;;;;3.40;100.00;102940.88;5216063;28;20032;-77
2022/01/13 02:23:49;;;;;;;33.78;14.23;;;;;;;3.39;100.00;102941.72;5216241;28;20033;-77
2022/01/13 02:26:21;;;;;;;36.42;15.30;;;;;;;3.35;100.00;102939.88;5219242;28;20053;-77
2022/01/13 02:28:51;;;;;;;35.78;14.75;;;;;;;3.38;100.00;102940.81;5217113;28;20025;-77
2022/01/13 02:31:22;;;;;;;41.33;16.10;;;;;;;3.21;100.00;102933.38;5216147;28;20026;-77
2022/01/13 02:33:54;;;;;;;34.90;15.38;;;;;;;3.23;100.00;102931.72;5219999;22;20123;-81
2022/01/13 02:36:27;;;;;;;38.42;16.50;;;;;;;3.24;100.00;102925.72;5190080;28;20086;-80
2022/01/13 02:39:00;;;;;;;46.70;17.15;;;;;;;3.27;100.00;102918.06;5188987;28;20596;-80
2022/01/13 02:41:31;;;;;;;40.22;17.17;;;;;;;3.20;100.00;102919.56;5202784;28;20032;-80
2022/01/13 02:44:11;;;;;;;47.70;18.15;;;;;;;3.20;100.00;102923.88;5202756;28;20030;-80
2022/01/13 02:49:14;;;;;;;44.20;18.67;;;;;;;3.26;100.00;102913.72;5202403;28;20032;-83
2022/01/13 02:51:46;;;;;;;45.58;18.23;;;;;;;3.25;100.00;102906.81;5202145;28;20041;-81
2022/01/13 02:54:17;;;;;;;49.20;19.58;;;;;;;3.35;100.00;102904.56;5202450;28;20037;-81
2022/01/13 02:56:47;;;;;;;46.17;19.20;;;;;;;3.38;100.00;102898.63;5202191;28;20033;-80
2022/01/13 02:59:17;;;;;;;44.63;18.90;;;;;;;3.22;100.00;102899.81;5201071;28;20518;-80
2022/01/13 03:01:47;;;;;;;49.90;20.10;;;;;;;3.43;100.00;102891.88;5201986;28;20108;-81
2022/01/13 03:04:21;;;;;;;49.80;20.00;;;;;;;3.45;100.00;102885.03;5189627;28;20496;-80
2022/01/13 03:06:51;;;;;;;45.75;19.25;;;;;;;3.39;100.00;102884.84;5188805;28;20041;-79
2022/01/13 03:09:22;;;;;;;52.70;19.83;;;;;;;3.40;100.00;102884.03;5191904;28;20503;-78
2022/01/13 03:11:52;;;;;;;54.38;20.70;;;;;;;3.34;100.00;102883.84;5201608;28;20022;-78
2022/01/13 03:14:22;;;;;;;49.58;20.52;;;;;;;3.43;100.00;102877.25;5201570;28;20049;-78
2022/01/13 03:16:53;;;;;;;50.42;20.13;;;;;;;3.39;100.00;102885.72;5201892;28;20034;-81
2022/01/13 03:19:23;;;;;;;54.75;22.13;;;;;;;3.31;100.00;102891.47;5202000;28;20034;-82
2022/01/13 03:21:53;;;;;;;55.05;21.75;;;;;;;3.35;100.00;102890.78;5201063;28;20151;-80
2022/01/13 03:28:07;;;;;;;55.67;20.75;;;;;;;3.41;100.00;102878.91;5172231;28;20056;-80
2022/01/13 03:30:37;;;;;;;56.05;21.63;;;;;;;3.32;100.00;102888.06;5187814;28;20031;-82
2022/01/13 03:33:08;;;;;;;60.05;22.98;;;;;;;3.33;100.00;102874.34;5194971;28;20109;-81
2022/01/13 03:35:40;;;;;;;58.83;22.15;;;;;;;3.38;100.00;102872.78;5189469;28;20091;-79
2022/01/13 03:38:10;;;;;;;59.88;22.33;;;;;;;3.25;100.00;102879.28;5186550;28;20072;-82
2022/01/13 03:40:42;;;;;;;63.55;24.20;;;;;;;3.23;100.00;102882.63;5197608;28;20479;-81
2022/01/13 03:43:14;;;;;;;55.42;23.42;;;;;;;3.39;100.00;102871.94;5201322;28;20386;-78
2022/01/13 03:45:45;;;;;;;63.05;23.63;;;;;;;3.32;100.00;102877.72;5201829;28;20056;-80
2022/01/13 03:48:16;;;;;;;64.55;24.40;;;;;;;3.35;100.00;102883.03;5199868;28;20026;-80
2022/01/13 03:50:46;;;;;;;64.78;25.60;;;;;;;3.25;100.00;102876.69;5201022;28;20102;-82
2022/01/13 03:53:28;;;;;;;63.55;24.88;;;;;;;3.23;100.00;102872.31;5201325;28;20037;-79
2022/01/13 03:56:20;;;;;;;64.65;25.00;;;;;;;3.26;100.00;102867.22;5201062;28;20446;-79
2022/01/13 03:59:37;;;;;;;58.83;24.95;;;;;;;3.36;100.00;102856.34;5195915;28;20041;-80
2022/01/13 04:02:13;;;;;;;68.00;26.40;;;;;;;3.24;100.00;102848.22;5200599;28;20036;-78
2022/01/13 04:04:46;;;;;;;62.70;24.38;;;;;;;3.29;100.00;102849.22;5185387;28;20579;-79
2022/01/13 04:07:19;;;;;;;69.70;25.95;;;;;;;3.34;100.00;102839.91;5184305;28;20557;-79
2022/01/13 04:09:50;;;;;;;65.88;25.70;;;;;;;3.38;100.00;102837.44;5193312;28;20029;-78
2022/01/13 04:12:23;;;;;;;63.97;26.45;;;;;;;3.21;100.00;102835.22;5201004;28;20419;-78
2022/01/13 04:14:57;;;;;;;70.05;27.52;;;;;;;3.38;100.00;102841.75;5200723;28;20564;-79
2022/01/13 04:17:28;;;;;;;67.47;25.58;;;;;;;3.31;100.00;102844.97;5200912;28;20141;-80
2022/01/13 04:19:58;;;;;;;68.82;24.83;;;;;;;3.33;100.00;102839.03;5199114;28;20106;-79
2022/01/13 04:22:29;;;;;;;70.05;26.80;;;;;;;3.40;100.00;102832.34;5199727;28;20033;-80
2022/01/13 04:24:59;;;;;;;60.65;23.38;;;;;;;3.37;100.00;102834.84;5200614;28;20037;-80
2022/01/13 04:27:35;;;;;;;67.13;24.98;;;;;;;3.25;100.00;102834.47;5199719;28;20071;-80
2022/01/13 04:32:46;;;;;;;64.80;24.60;;;;;;;3.37;100.00;102834.84;5198138;28;20041;-79
2022/01/13 04:35:17;;;;;;;65.40;26.52;;;;;;;3.39;100.00;102839.19;5182916;28;20034;-80
2022/01/13 04:37:47;;;;;;;67.28;24.95;;;;;;;3.34;100.00;102827.00;5185129;28;20383;-79
2022/01/13 04:40:17;;;;;;;61.63;25.92;;;;;;;3.32;100.00;102820.88;5195085;28;20037;-81
2022/01/13 04:42:53;;;;;;;65.43;25.25;;;;;;;3.40;100.00;102827.16;5200676;28;20039;-80
2022/01/13 04:45:24;;;;;;;;;;;;;;;3.31;100.00;102819.13;5200978;28;20111;-78
2022/01/13 04:47:56;;;;;;;60.83;24.40;;;;;;;3.46;100.00;102829.91;5200283;28;19948;-79
2022/01/13 04:50:28;;;;;;;61.85;24.80;;;;;;;3.42;100.00;102820.34;5200376;28;20108;-82
2022/01/13 04:52:58;;;;;;;67.65;25.48;;;;;;;3.43;100.00;102820.41;5200221;28;20029;-80
2022/01/13 04:55:31;;;;;;;64.80;25.63;;;;;;;3.46;100.00;102823.06;5200045;28;20033;-82
2022/01/13 04:58:04;;;;;;;64.97;25.65;;;;;;;3.47;100.00;102829.97;5200717;28;20061;-80
2022/01/13 05:00:34;;;;;;;63.72;25.67;;;;;;;3.36;100.00;102827.91;5199358;28;20135;-80
2022/01/13 05:03:04;;;;;;;60.60;25.85;;;;;;;3.43;100.00;102827.25;5194656;28;20108;-81
2022/01/13 05:05:35;;;;;;;59.83;24.92;;;;;;;3.42;100.00;102830.66;5185410;28;20061;-80
2022/01/13 05:08:05;;;;;;;62.78;25.17;;;;;;;3.42;100.00;102838.44;5182918;28;20655;-80
2022/01/13 05:10:35;;;;;;;62.45;24.70;;;;;;;3.43;100.00;102842.75;5195199;28;20298;-79
2022/01/13 05:13:09;;;;;;;64.22;24.52;;;;;;;3.53;100.00;102844.81;5200482;28;20033;-79
2022/01/13 05:15:41;;;;;;;63.15;25.85;;;;;;;3.62;100.00;102843.34;5183527;28;20037;-82
2022/01/13 05:21:04;;;;;;;63.03;25.67;;;;;;;3.30;100.00;102838.94;5200140;28;20426;-81
2022/01/13 05:23:35;;;;;;;62.47;23.63;;;;;;;3.41;100.00;102836.69;5200098;28;20221;-79
2022/01/13 05:26:05;;;;;;;66.28;25.20;;;;;;;3.33;100.00;102843.34;5199868;28;20040;-80
2022/01/13 05:28:35;;;;;;;68.50;26.85;;;;;;;3.45;100.00;102848.84;5199548;28;20092;-79
2022/01/13 05:31:07;;;;;;;66.22;25.40;;;;;;;3.26;100.00;102847.44;5199762;28;20106;-78
2022/01/13 05:33:38;;;;;;;69.00;25.45;;;;;;;3.26;100.00;102841.38;5193941;28;20052;-79
2022/01/13 05:36:08;;;;;;;68.32;25.65;;;;;;;3.33;100.00;102843.34;5184991;28;20049;-79
2022/01/13 05:38:42;;;;;;;74.30;27.58;;;;;;;3.37;100.00;102840.00;5188998;28;20083;-79
2022/01/13 05:41:12;;;;;;;75.30;27.02;;;;;;;3.41;100.00;102842.72;5195889;28;20499;-79
2022/01/13 05:43:42;;;;;;;66.32;24.80;;;;;;;3.37;100.00;102842.59;5203637;28;20044;-80
2022/01/13 05:46:13;;;;;;;63.97;24.77;;;;;;;3.41;100.00;102841.84;5203393;28;20029;-78
2022/01/13 05:48:43;;;;;;;65.20;24.20;;;;;;;3.35;100.00;102841.69;5203486;28;20072;-78
2022/01/13 05:51:14;;;;;;;71.45;25.23;;;;;;;3.33;100.00;102844.19;5203376;28;20029;-80
2022/01/13 05:53:45;;;;;;;65.30;25.45;;;;;;;3.15;100.00;102842.75;5203165;28;20033;-80
2022/01/13 05:56:15;;;;;;;61.13;22.58;;;;;;;3.28;100.00;102839.72;5203668;28;20037;-78
2022/01/13 05:58:46;;;;;;;70.00;24.92;;;;;;;3.29;100.00;102833.72;5193798;28;20091;-80
2022/01/13 06:01:16;;;;;;;69.15;26.15;;;;;;;3.39;100.00;102844.38;5184699;28;20029;-81
2022/01/13 06:03:46;;;;;;;70.80;26.70;;;;;;;3.36;100.00;102835.66;5184208;28;20022;-80
2022/01/13 06:06:17;;;;;;;67.60;25.17;;;;;;;3.35;100.00;102833.91;5184949;28;20244;-79
2022/01/13 06:08:47;;;;;;;64.93;24.60;;;;;;;3.41;100.00;102840.16;5183748;28;20135;-79
2022/01/13 06:11:22;;;;;;;68.47;25.33;;;;;;;3.42;100.00;102834.16;5199399;28;20033;-78
2022/01/13 06:13:52;;;;;;;68.45;25.08;;;;;;;3.30;100.00;102822.56;5202708;28;20112;-80
2022/01/13 06:16:22;;;;;;;69.22;24.65;;;;;;;3.39;100.00;102826.28;5203278;28;20164;-81
2022/01/13 06:18:52;;;;;;;70.53;24.60;;;;;;;3.37;100.00;102834.84;5201452;28;20071;-79
2022/01/13 06:21:23;;;;;;;63.47;24.60;;;;;;;3.35;100.00;102832.19;5186318;28;20037;-80
2022/01/13 06:23:53;;;;;;;67.57;25.42;;;;;;;3.36;100.00;102822.75;5187663;28;20442;-78
2022/01/13 06:26:23;;;;;;;75.32;26.38;;;;;;;3.37;100.00;102830.53;5203020;28;20100;-78
2022/01/13 06:28:54;;;;;;;74.63;24.80;;;;;;;3.46;100.00;102819.59;5202648;28;20438;-80
2022/01/13 06:31:24;;;;;;;71.00;24.58;;;;;;;3.39;100.00;102815.94;5202517;28;20032;-79
2022/01/13 06:33:54;;;;;;;79.97;25.98;;;;;;;3.38;100.00;102815.91;5191405;28;20030;-79
2022/01/13 06:36:25;;;;;;;79.75;27.15;;;;;;;3.33;100.00;102810.59;5187747;28;20554;-80
2022/01/13 06:38:55;;;;;;;68.65;24.65;;;;;;;3.41;100.00;102805.66;5187014;28;20045;-80
2022/01/13 06:41:25;;;;;;;78.88;26.70;;;;;;;3.32;100.00;102802.78;5199848;28;20041;-79
2022/01/13 06:43:56;;;;;;;76.75;26.08;;;;;;;3.41;100.00;102805.66;5200418;28;20033;-79
2022/01/13 06:46:26;;;;;;;80.68;26.63;;;;;;;3.37;100.00;102809.84;5200153;28;20049;-80
2022/01/13 06:48:56;;;;;;;76.65;25.83;;;;;;;3.48;100.00;102797.25;5201784;28;20441;-79
2022/01/13 06:51:27;;;;;;;76.47;26.00;;;;;;;3.36;100.00;102804.66;5202297;28;20034;-79
2022/01/13 06:53:57;;;;;;;81.50;26.98;;;;;;;3.43;100.00;102810.06;5201852;28;20048;-80
2022/01/13 06:56:27;;;;;;;78.00;26.45;;;;;;;3.54;100.00;102812.94;5201813;28;20064;-81
2022/01/13 06:58:57;;;;;;;80.82;25.80;;;;;;;3.55;100.00;102805.22;5201792;28;20033;-81
2022/01/13 07:01:28;;;;;;;81.85;25.17;;;;;;;3.56;100.00;102822.47;5201478;28;20548;-80
2022/01/13 07:03:58;;;;;;;78.30;26.58;;;;;;;3.61;100.00;102823.50;5191579;28;20030;-81
2022/01/13 07:06:28;;;;;;;77.30;25.73;;;;;;;3.54;100.00;102831.91;5189440;28;20022;-79
2022/01/13 07:08:59;;;;;;;78.45;24.83;;;;;;;3.67;100.00;102834.91;5187380;28;20087;-80
2022/01/13 07:11:29;;;;;;;82.07;26.17;;;;;;;3.60;100.00;102832.94;5201700;28;20021;-79
2022/01/13 07:13:59;;;;;;;79.45;26.25;;;;;;;3.76;100.00;102840.31;5201915;28;20037;-79
2022/01/13 07:16:30;;;;;;;74.20;25.35;;;;;;;3.68;100.00;102833.16;5201078;28;20581;-79
2022/01/13 07:19:02;;;;;;;72.53;24.52;;;;;;;3.71;100.00;102836.72;5202367;28;20144;-79
2022/01/13 07:21:33;;;;;;;73.55;25.45;;;;;;;3.73;100.00;102844.50;5202105;28;20108;-80
2022/01/13 07:24:03;;;;;;;71.45;25.00;;;;;;;3.78;100.00;102838.66;5202529;28;20108;-80
2022/01/13 07:26:34;;;;;;;73.70;24.73;;;;;;;3.89;100.00;102838.94;5202333;28;20776;-80
2022/01/13 07:29:05;;;;;;;75.85;24.60;;;;;;;3.88;100.00;102843.25;5201108;28;20025;-80
2022/01/13 07:31:37;;;;;;;71.32;24.30;;;;;;;3.93;100.00;102844.25;5201003;28;20537;-80
2022/01/13 07:34:07;;;;;;;69.68;23.67;;;;;;;3.81;100.00;102832.69;5189577;28;20033;-81
2022/01/13 07:36:39;;;;;;;66.70;22.33;;;;;;;3.92;100.00;102832.16;5188139;28;20044;-80
2022/01/13 07:39:09;;;;;;;66.72;23.92;;;;;;;3.81;100.00;102836.13;5189047;28;20104;-79
2022/01/13 07:41:41;;;;;;;70.30;24.33;;;;;;;3.88;100.00;102821.66;5201081;28;20116;-79
2022/01/13 07:44:12;;;;;;;70.68;22.80;;;;;;;3.95;100.00;102829.63;5192936;28;20029;-80
2022/01/13 07:46:42;;;;;;;70.40;23.08;;;;;;;3.91;100.00;102832.97;5200975;28;20044;-80
2022/01/13 07:49:13;;;;;;;66.47;22.75;;;;;;;3.91;100.00;102834.69;5200821;28;20417;-79
2022/01/13 07:51:43;;;;;;;63.80;22.00;;;;;;;3.91;100.00;102837.25;5200309;28;20037;-79
2022/01/13 07:54:13;;;;;;;64.20;23.15;;;;;;;3.90;100.00;102851.91;5186417;28;20033;-80
2022/01/13 07:56:43;;;;;;;63.38;22.27;;;;;;;4.10;100.00;102850.75;5186638;28;20061;-78
2022/01/13 07:59:14;;;;;;;69.07;23.00;;;;;;;4.02;100.00;102839.34;5201113;28;20083;-79
2022/01/13 08:01:44;;;;;;;59.80;21.88;;;;;;;3.95;100.00;102839.97;5187411;28;20460;-78
2022/01/13 08:04:17;;;;;;;60.75;21.75;;;;;;;3.99;100.00;102836.63;5197750;28;20094;-78
2022/01/13 08:06:48;;;;;;;60.70;21.77;;;;;;;4.03;100.00;102838.50;5190659;28;20106;-79
2022/01/13 08:09:18;;;;;;;62.53;22.88;;;;;;;4.05;100.00;102833.34;5190605;28;20045;-79
2022/01/13 08:11:48;;;;;;;55.45;21.13;;;;;;;4.04;100.00;102835.06;5200644;28;20037;-79
2022/01/13 08:14:19;;;;;;;63.28;22.25;;;;;;;4.08;100.00;102839.47;5200986;28;20483;-79
2022/01/13 08:16:53;;;;;;;53.40;21.10;;;;;;;4.07;100.00;102842.03;5200650;28;20036;-79
2022/01/13 08:22:16;;;;;;;54.85;20.50;;;;;;;4.02;100.00;102856.56;5200328;28;20064;-79
2022/01/13 08:24:46;;;;;;;59.35;20.83;;;;;;;4.03;100.00;102843.66;5188355;28;20062;-79
2022/01/13 08:27:16;;;;;;;65.72;22.10;;;;;;;4.12;100.00;102854.25;5195701;28;20060;-79
2022/01/13 08:29:47;;;;;;;58.65;21.35;;;;;;;4.13;100.00;102856.00;5200503;28;20025;-79
2022/01/13 08:32:18;;;;;;;59.50;19.73;;;;;;;4.13;100.00;102860.31;5200055;28;20021;-79
2022/01/13 08:34:49;;;;;;;51.25;19.85;;;;;;;4.08;100.00;102848.94;5200569;28;20034;-78
2022/01/13 08:37:19;;;;;;;60.05;19.52;;;;;;;4.07;100.00;102853.25;5190045;28;20084;-79
2022/01/13 08:39:49;;;;;;;60.88;20.52;;;;;;;4.09;100.00;102854.19;5192423;28;20112;-80
2022/01/13 08:42:20;;;;;;;55.13;19.35;;;;;;;4.09;100.00;102854.19;5200462;28;20037;-80
2022/01/13 08:44:50;;;;;;;56.85;20.08;;;;;;;4.07;100.00;102849.78;5199891;28;20543;-81
2022/01/13 08:47:20;;;;;;;58.03;20.35;;;;;;;4.19;100.00;102853.59;5200917;28;20541;-78
2022/01/13 08:49:51;;;;;;;57.15;21.48;;;;;;;4.19;100.00;102856.19;5200262;28;20029;-79
2022/01/13 08:52:21;;;;;;;57.58;20.70;;;;;;;4.13;100.00;102856.00;5199993;28;20494;-78
2022/01/13 08:54:55;;;;;;;56.35;19.88;;;;;;;4.20;100.00;102855.34;5186309;28;20025;-79
2022/01/13 08:57:25;;;;;;;52.60;19.27;;;;;;;4.28;100.00;102861.59;5195413;28;20108;-78
2022/01/13 08:59:56;;;;;;;54.80;19.77;;;;;;;4.32;100.00;102872.91;5200589;28;20036;-78
2022/01/13 09:02:30;;;;;;;51.58;19.92;;;;;;;4.34;100.00;102866.94;5200731;28;20068;-80
2022/01/13 09:05:01;;;;;;;51.45;18.33;;;;;;;4.19;100.00;102882.06;5180320;28;20021;-78
2022/01/13 09:07:31;;;;;;;61.30;19.75;;;;;;;4.34;100.00;102881.59;5180440;28;20018;-83
2022/01/13 09:10:02;;;;;;;53.90;19.17;;;;;;;4.41;100.00;102884.38;5184014;28;20853;-82
2022/01/13 09:12:33;;;;;;;48.13;17.05;;;;;;;4.31;100.00;102877.19;5199123;28;20025;-81
2022/01/13 09:15:25;;;;;;;50.63;18.00;;;;;;;4.35;100.00;102879.06;5203968;28;20445;-80
2022/01/13 09:17:55;;;;;;;54.60;18.27;;;;;;;4.34;100.00;102877.31;5191197;28;20290;-81
2022/01/13 09:20:26;;;;;;;56.38;19.27;;;;;;;4.43;100.00;102882.69;5200566;28;20454;-80
2022/01/13 09:22:56;;;;;;;48.85;18.33;;;;;;;4.42;100.00;102885.22;5202466;28;20566;-79
2022/01/13 09:25:26;;;;;;;55.47;18.55;;;;;;;4.37;100.00;102871.31;5189578;28;20059;-80
2022/01/13 09:27:56;;;;;;;55.47;19.95;;;;;;;4.38;100.00;102881.72;5202160;28;20029;-80
2022/01/13 09:30:27;;;;;;;48.80;17.63;;;;;;;4.45;100.00;102880.16;5200363;28;20029;-80
2022/01/13 09:32:57;;;;;;;51.40;19.08;;;;;;;4.37;100.00;102874.78;5200664;28;20037;-80
2022/01/13 09:35:28;;;;;;;59.47;19.42;;;;;;;4.49;100.00;102874.22;5204587;28;20029;-81
2022/01/13 09:37:59;;;;;;;52.63;19.23;;;;;;;4.50;100.00;102863.88;5185286;28;20479;-81
2022/01/13 09:40:29;;;;;;;58.53;19.00;;;;;;;4.51;100.00;102875.13;5195169;28;20029;-80
2022/01/13 09:43:02;;;;;;;57.22;19.52;;;;;;;4.70;100.00;102873.06;5204560;28;20886;-79
2022/01/13 09:45:33;;;;;;;56.30;18.13;;;;;;;4.69;100.00;102879.06;5199089;28;20057;-81
2022/01/13 09:48:04;;;;;;;52.42;17.77;;;;;;;4.66;100.00;102871.19;5205067;28;20068;-80
2022/01/13 09:50:34;;;;;;;52.05;18.17;;;;;;;4.63;100.00;102875.44;5205170;28;20115;-80
2022/01/13 09:53:04;;;;;;;52.15;18.38;;;;;;;4.78;100.00;102870.66;5198190;28;20041;-81
2022/01/13 09:55:35;;;;;;;51.55;18.45;;;;;;;4.77;100.00;102864.59;5188887;28;20036;-80
2022/01/13 09:58:10;;;;;;;47.80;17.65;;;;;;;4.71;100.00;102877.41;5201906;28;20037;-80
2022/01/13 10:00:42;;;;;;;48.25;17.80;;;;;;;4.61;100.00;102870.22;5187125;28;20399;-82
2022/01/13 10:03:16;;;;;;;51.70;19.27;;;;;;;4.65;100.00;102877.22;5186362;28;20094;-80
2022/01/13 10:05:48;;;;;;;45.28;17.67;;;;;;;4.68;100.00;102879.91;5202709;28;20033;-80
2022/01/13 10:08:21;;;;;;;39.22;15.10;;;;;;;4.63;100.00;102876.31;5188637;28;20132;-79
2022/01/13 10:10:51;;;;;;;45.33;17.35;;;;;;;4.65;100.00;102876.38;5201627;28;20025;-79
2022/01/13 10:13:40;;;;;;;43.78;16.42;;;;;;;4.81;100.00;102881.94;5204014;28;20029;-80
2022/01/13 10:16:23;;;;;;;43.20;16.83;;;;;;;4.73;100.00;102882.59;5193639;28;20025;-81
2022/01/13 10:18:54;;;;;;;46.25;16.33;;;;;;;4.81;100.00;102887.13;5202293;28;20025;-80
2022/01/13 10:21:25;;;;;;;43.63;18.17;;;;;;;4.73;100.00;102878.31;5202868;28;20021;-80
2022/01/13 10:24:03;;;;;;;43.30;16.65;;;;;;;4.77;100.00;102880.13;5195293;28;20035;-80
2022/01/13 10:26:36;;;;;;;44.35;17.60;;;;;;;4.89;100.00;102876.97;5195924;28;20029;-80
2022/01/13 10:29:08;;;;;;;41.47;16.17;;;;;;;5.11;100.00;102874.06;5203171;28;20652;-80
2022/01/13 10:31:47;;;;;;;39.17;16.65;;;;;;;4.89;100.00;102870.06;5202312;28;20562;-80
2022/01/13 10:34:25;;;;;;;46.15;16.85;;;;;;;4.80;100.00;102863.81;5196984;28;20060;-80
2022/01/13 10:37:13;;;;;;;43.47;17.15;;;;;;;4.82;100.00;102857.78;5194140;28;20630;-79
2022/01/13 10:39:54;;;;;;;40.83;16.92;;;;;;;4.81;100.00;102865.53;5187256;28;20084;-80
2022/01/13 10:45:06;;;;;;;45.47;17.33;;;;;;;5.04;100.00;102870.44;5201891;28;20037;-79
2022/01/13 10:47:39;;;;;;;37.78;15.32;;;;;;;5.04;100.00;102867.84;5202700;28;20475;-81
2022/01/13 10:50:12;;;;;;;39.30;16.40;;;;;;;5.06;100.00;102853.22;5202506;28;20026;-80
2022/01/13 10:52:43;;;;;;;38.75;15.38;;;;;;;5.14;100.00;102855.97;5194617;28;20038;-81
2022/01/13 10:55:24;;;;;;;37.47;15.30;;;;;;;5.12;100.00;102835.19;5186082;28;20075;-81
2022/01/13 10:57:54;;;;;;;38.33;16.33;;;;;;;5.18;100.00;102832.72;5194782;28;20056;-80
2022/01/13 11:00:27;;;;;;;39.72;15.90;;;;;;;5.16;100.00;102828.38;5202354;28;20025;-81
2022/01/13 11:03:12;;;;;;;41.95;16.52;;;;;;;5.13;100.00;102815.34;5202052;28;20632;-80
2022/01/13 11:05:47;;;;;;;45.63;16.95;;;;;;;5.21;100.00;102821.56;5192819;28;20029;-81
2022/01/13 11:08:29;;;;;;;38.38;16.92;;;;;;;5.35;100.00;102818.41;5184819;28;20483;-80
2022/01/13 11:11:01;;;;;;;39.28;17.23;;;;;;;5.41;100.00;102810.78;5191114;28;20025;-80
2022/01/13 11:13:37;;;;;;;39.10;15.95;;;;;;;5.24;100.00;102806.97;5201851;28;20111;-80
2022/01/13 11:16:08;;;;;;;39.47;16.20;;;;;;;5.21;100.00;102801.72;5202457;28;20040;-81
2022/01/13 11:18:39;;;;;;;37.55;16.15;;;;;;;5.16;100.00;102807.63;5202294;28;20029;-80
2022/01/13 11:21:09;;;;;;;37.80;15.82;;;;;;;5.42;100.00;102800.44;5202059;28;20040;-83
2022/01/13 11:23:44;;;;;;;41.08;16.63;;;;;;;5.43;100.00;102797.00;5196088;28;20036;-83
2022/01/13 11:26:15;;;;;;;35.95;16.08;;;;;;;5.52;100.00;102793.72;5191263;28;20491;-79
2022/01/13 11:28:48;;;;;;;37.83;15.68;;;;;;;5.66;100.00;102800.06;5201895;28;20566;-81
2022/01/13 11:31:19;;;;;;;37.42;15.15;;;;;;;5.31;100.00;102788.09;5202313;28;20494;-82
2022/01/13 11:33:50;;;;;;;37.88;15.50;;;;;;;5.44;100.00;102790.09;5201847;28;20061;-80
2022/01/13 11:36:21;;;;;;;33.08;15.18;;;;;;;5.43;100.00;102789.22;5196975;28;20025;-81
2022/01/13 11:38:57;;;;;;;36.03;14.93;;;;;;;5.49;100.00;102778.09;5188812;28;20036;-79
2022/01/13 11:41:27;;;;;;;32.10;14.65;;;;;;;5.44;100.00;102780.59;5197008;28;20552;-80
2022/01/13 11:44:17;;;;;;;34.80;15.63;;;;;;;5.54;100.00;102776.50;5194818;28;20033;-79
2022/01/13 11:46:49;;;;;;;31.67;14.40;;;;;;;5.46;100.00;102762.50;5195430;28;20601;-80
2022/01/13 11:49:24;;;;;;;30.45;13.73;;;;;;;5.60;100.00;102768.81;5201300;28;20033;-80
2022/01/13 11:51:58;;;;;;;31.37;14.40;;;;;;;5.83;100.00;102762.38;5189733;28;20021;-81
2022/01/13 11:54:33;;;;;;;32.55;13.70;;;;;;;5.71;100.00;102754.34;5183407;28;20025;-82
2022/01/13 11:57:16;;;;;;;29.55;12.68;;;;;;;5.78;100.00;102756.22;5190226;28;20068;-80
2022/01/13 12:00:07;;;;;;;31.25;13.15;;;;;;;5.81;100.00;102752.00;5177197;28;20026;-83
2022/01/13 12:02:42;;;;;;;29.67;14.10;;;;;;;5.98;100.00;102747.09;5182869;28;20414;-80